Date,TemperatureHighF,TemperatureAvgF,TemperatureLowF,DewpointHighF,DewpointAvgF,DewpointLowF,HumidityHigh,HumidityAvg,HumidityLow,PressureMaxIn,PressureMinIn,WindSpeedMaxMPH,WindSpeedAvgMPH,GustSpeedMaxMPH,PrecipitationSumIn
2013-3-1,43,38,34,34,29,25,87,69,58,29.15,29.01,10,2,10,0.00
2013-3-2,39,35,30,26,23,20,73,60,54,29.14,29.05,13,4,13,0.00
2013-3-3,49,34,24,26,20,15,81,58,39,29.18,29.04,19,4,19,0.00
2013-3-4,54,36,21,21,16,13,75,46,21,29.29,29.17,17,4,17,0.00
2013-3-5,54,40,33,38,31,18,99,71,48,29.30,28.93,11,3,11,0.28
2013-3-6,42,37,32,36,33,31,99,87,67,29.28,28.80,34,10,34,0.51
2013-3-7,52,42,36,33,30,26,85,61,46,29.44,29.25,21,6,21,0.00
2013-3-8,53,43,34,32,29,24,83,59,43,29.52,29.41,27,6,27,0.00
2013-3-9,68,47,32,34,28,21,82,52,20,29.57,29.49,14,4,14,0.00
2013-3-10,71,51,33,39,32,26,82,51,27,29.55,29.42,14,3,14,0.00
2013-3-11,61,52,42,54,41,29,88,65,50,29.45,29.12,15,3,15,0.02
2013-3-12,68,57,40,60,48,32,99,75,38,29.19,28.94,19,5,19,1.05
2013-3-13,52,41,32,35,28,18,89,60,43,29.34,29.17,24,6,24,0.00
2013-3-14,53,40,28,25,20,16,66,45,29,29.42,29.29,22,6,22,0.00
2013-3-15,62,46,30,41,30,19,73,53,41,29.36,29.04,19,5,19,0.00
2013-3-16,75,55,42,61,48,36,98,78,50,29.08,28.80,19,2,19,0.20
2013-3-17,53,40,33,52,38,33,99,94,89,29.47,29.07,12,4,12,0.27
2013-3-18,34,33,32,34,33,32,99,99,96,29.48,29.11,9,2,9,0.37
2013-3-19,64,47,32,49,28,5,99,59,17,29.22,28.97,54,5,54,0.45
2013-3-20,57,45,32,24,17,8,56,34,21,29.27,28.98,27,6,27,0.00
2013-3-21,43,35,26,30,18,11,78,51,34,29.16,28.97,21,6,21,0.00
2013-3-22,53,37,23,26,19,12,72,48,32,29.23,29.12,23,5,23,0.00
2013-3-23,62,44,30,32,25,19,75,49,29,29.27,29.09,13,3,13,0.00
2013-3-24,44,36,32,32,28,22,99,74,44,29.19,28.83,17,4,17,0.00
2013-3-25,50,37,30,38,32,26,99,84,57,28.95,28.75,14,1,14,0.06
2013-3-26,50,41,33,34,29,27,84,64,45,29.28,28.94,16,4,16,0.00
2013-3-27,52,42,34,31,28,25,75,58,38,29.40,29.27,24,6,24,0.00
2013-3-28,54,42,30,31,28,25,85,59,38,29.47,29.36,24,5,24,0.00
2013-3-29,65,48,34,37,31,28,85,56,31,29.50,29.34,16,3,16,0.00
2013-3-30,68,51,32,40,33,28,85,54,31,29.45,29.28,17,3,17,0.00
2013-3-31,58,48,42,54,43,34,99,84,54,29.30,28.97,8,2,8,0.15